sensor_id;sensor_type;location;lat;lon;timestamp;temperature;humidity
3542;DHT22;1785;47.388;8.538;2024-03-25T00:00:08;7.80;99.90
3542;DHT22;1785;47.388;8.538;2024-03-25T00:02:37;7.80;99.90
3542;DHT22;1785;47.388;8.538;2024-03-25T00:05:03;7.90;99.90
3542;DHT22;1785;47.388;8.538;2024-03-25T00:07:30;8.10;99.90
3542;DHT22;1785;47.388;8.538;2024-03-25T00:09:57;8.10;99.90
3542;DHT22;1785;47.388;8.538;2024-03-25T00:12:25;7.90;99.90
3542;DHT22;1785;47.388;8.538;2024-03-25T00:14:50;7.90;99.90
3542;DHT22;1785;47.388;8.538;2024-03-25T00:17:17;7.80;99.90
3542;DHT22;1785;47.388;8.538;2024-03-25T00:19:43;7.80;99.90
3542;DHT22;1785;47.388;8.538;2024-03-25T00:22:16;7.80;99.90
3542;DHT22;1785;47.388;8.538;2024-03-25T00:24:42;8.00;99.90
3542;DHT22;1785;47.388;8.538;2024-03-25T00:27:08;7.80;99.90
3542;DHT22;1785;47.388;8.538;2024-03-25T00:29:34;7.80;99.90
3542;DHT22;1785;47.388;8.538;2024-03-25T00:32:00;8.00;99.90
3542;DHT22;1785;47.388;8.538;2024-03-25T00:34:26;8.00;99.90
3542;DHT22;1785;47.388;8.538;2024-03-25T00:36:53;7.80;99.90
3542;DHT22;1785;47.388;8.538;2024-03-25T00:39:19;7.40;99.90
3542;DHT22;1785;47.388;8.538;2024-03-25T00:41:45;7.60;99.90
3542;DHT22;1785;47.388;8.538;2024-03-25T00:44:11;7.70;99.90
3542;DHT22;1785;47.388;8.538;2024-03-25T00:46:37;7.20;99.90
3542;DHT22;1785;47.388;8.538;2024-03-25T00:49:03;6.90;99.90
3542;DHT22;1785;47.388;8.538;2024-03-25T00:51:29;7.00;99.90
3542;DHT22;1785;47.388;8.538;2024-03-25T00:53:55;7.20;99.90
3542;DHT22;1785;47.388;8.538;2024-03-25T00:56:22;7.40;99.90
3542;DHT22;1785;47.388;8.538;2024-03-25T00:58:47;7.70;99.90
3542;DHT22;1785;47.388;8.538;2024-03-25T01:01:14;7.90;99.90
3542;DHT22;1785;47.388;8.538;2024-03-25T01:03:40;8.00;99.90
3542;DHT22;1785;47.388;8.538;2024-03-25T01:06:06;8.00;99.90
3542;DHT22;1785;47.388;8.538;2024-03-25T01:08:32;8.10;99.90
3542;DHT22;1785;47.388;8.538;2024-03-25T01:10:58;8.10;99.90
3542;DHT22;1785;47.388;8.538;2024-03-25T01:13:24;8.00;99.90
3542;DHT22;1785;47.388;8.538;2024-03-25T01:15:51;7.90;99.90
3542;DHT22;1785;47.388;8.538;2024-03-25T01:18:17;7.80;99.90
3542;DHT22;1785;47.388;8.538;2024-03-25T01:20:43;7.70;99.90
3542;DHT22;1785;47.388;8.538;2024-03-25T01:23:10;7.70;99.90
3542;DHT22;1785;47.388;8.538;2024-03-25T01:25:36;7.80;99.90
3542;DHT22;1785;47.388;8.538;2024-03-25T01:28:02;7.90;99.90
3542;DHT22;1785;47.388;8.538;2024-03-25T01:30:29;7.90;99.90
3542;DHT22;1785;47.388;8.538;2024-03-25T01:32:55;8.00;99.90
3542;DHT22;1785;47.388;8.538;2024-03-25T01:35:21;8.10;99.90
3542;DHT22;1785;47.388;8.538;2024-03-25T01:37:49;8.10;99.90
3542;DHT22;1785;47.388;8.538;2024-03-25T01:40:15;8.00;99.90
3542;DHT22;1785;47.388;8.538;2024-03-25T01:42:41;8.00;99.90
3542;DHT22;1785;47.388;8.538;2024-03-25T01:45:08;8.00;99.90
3542;DHT22;1785;47.388;8.538;2024-03-25T01:47:36;8.00;99.90
3542;DHT22;1785;47.388;8.538;2024-03-25T01:50:06;8.00;99.90
3542;DHT22;1785;47.388;8.538;2024-03-25T01:52:32;7.90;99.90
3542;DHT22;1785;47.388;8.538;2024-03-25T01:54:58;7.80;99.90
3542;DHT22;1785;47.388;8.538;2024-03-25T01:57:24;7.50;99.90
3542;DHT22;1785;47.388;8.538;2024-03-25T01:59:52;7.20;99.90
3542;DHT22;1785;47.388;8.538;2024-03-25T02:02:19;7.20;99.90
3542;DHT22;1785;47.388;8.538;2024-03-25T02:04:45;7.30;99.90
3542;DHT22;1785;47.388;8.538;2024-03-25T02:07:11;7.50;99.90
3542;DHT22;1785;47.388;8.538;2024-03-25T02:09:38;7.50;99.90
3542;DHT22;1785;47.388;8.538;2024-03-25T02:12:06;7.40;99.90
3542;DHT22;1785;47.388;8.538;2024-03-25T02:14:34;7.40;99.90
3542;DHT22;1785;47.388;8.538;2024-03-25T02:17:02;7.30;99.90
3542;DHT22;1785;47.388;8.538;2024-03-25T02:19:30;6.90;99.90
3542;DHT22;1785;47.388;8.538;2024-03-25T02:21:56;6.70;99.90
3542;DHT22;1785;47.388;8.538;2024-03-25T02:24:24;7.00;99.90
3542;DHT22;1785;47.388;8.538;2024-03-25T02:26:52;7.20;99.90
3542;DHT22;1785;47.388;8.538;2024-03-25T02:29:19;7.40;99.90
3542;DHT22;1785;47.388;8.538;2024-03-25T02:31:45;7.10;99.90
3542;DHT22;1785;47.388;8.538;2024-03-25T02:34:12;6.60;99.90
3542;DHT22;1785;47.388;8.538;2024-03-25T02:36:38;6.70;99.90
3542;DHT22;1785;47.388;8.538;2024-03-25T02:39:05;6.80;99.90
3542;DHT22;1785;47.388;8.538;2024-03-25T02:41:31;7.10;99.90
3542;DHT22;1785;47.388;8.538;2024-03-25T02:44:01;7.30;99.90
3542;DHT22;1785;47.388;8.538;2024-03-25T02:46:27;7.40;99.90
3542;DHT22;1785;47.388;8.538;2024-03-25T02:51:22;7.30;99.90
3542;DHT22;1785;47.388;8.538;2024-03-25T02:53:48;7.10;99.90
3542;DHT22;1785;47.388;8.538;2024-03-25T02:56:14;6.80;99.90
3542;DHT22;1785;47.388;8.538;2024-03-25T02:58:40;6.80;99.90
3542;DHT22;1785;47.388;8.538;2024-03-25T03:01:07;7.10;99.90
3542;DHT22;1785;47.388;8.538;2024-03-25T03:03:33;7.20;99.90
3542;DHT22;1785;47.388;8.538;2024-03-25T03:05:59;7.10;99.90
3542;DHT22;1785;47.388;8.538;2024-03-25T03:08:25;7.00;99.90
3542;DHT22;1785;47.388;8.538;2024-03-25T03:10:51;7.20;99.90
3542;DHT22;1785;47.388;8.538;2024-03-25T03:13:17;7.40;99.90
3542;DHT22;1785;47.388;8.538;2024-03-25T03:15:43;7.60;99.90
3542;DHT22;1785;47.388;8.538;2024-03-25T03:18:10;7.70;99.90
3542;DHT22;1785;47.388;8.538;2024-03-25T03:20:37;7.80;99.90
3542;DHT22;1785;47.388;8.538;2024-03-25T03:23:04;7.70;99.90
3542;DHT22;1785;47.388;8.538;2024-03-25T03:25:30;7.50;99.90
3542;DHT22;1785;47.388;8.538;2024-03-25T03:27:56;7.50;99.90
3542;DHT22;1785;47.388;8.538;2024-03-25T03:30:22;7.70;99.90
3542;DHT22;1785;47.388;8.538;2024-03-25T03:32:48;7.50;99.90
3542;DHT22;1785;47.388;8.538;2024-03-25T03:35:15;7.50;99.90
3542;DHT22;1785;47.388;8.538;2024-03-25T03:37:42;7.70;99.90
3542;DHT22;1785;47.388;8.538;2024-03-25T03:40:09;7.80;99.90
3542;DHT22;1785;47.388;8.538;2024-03-25T03:42:36;7.80;99.90
3542;DHT22;1785;47.388;8.538;2024-03-25T03:45:03;7.80;99.90
3542;DHT22;1785;47.388;8.538;2024-03-25T03:47:29;7.80;99.90
3542;DHT22;1785;47.388;8.538;2024-03-25T03:49:55;7.90;99.90
3542;DHT22;1785;47.388;8.538;2024-03-25T03:52:24;7.80;99.90
3542;DHT22;1785;47.388;8.538;2024-03-25T03:54:49;7.90;99.90
3542;DHT22;1785;47.388;8.538;2024-03-25T03:57:15;8.00;99.90
3542;DHT22;1785;47.388;8.538;2024-03-25T03:59:41;7.80;99.90
3542;DHT22;1785;47.388;8.538;2024-03-25T04:02:08;7.60;99.90
3542;DHT22;1785;47.388;8.538;2024-03-25T04:04:34;7.50;99.90
3542;DHT22;1785;47.388;8.538;2024-03-25T04:07:01;7.40;99.90
3542;DHT22;1785;47.388;8.538;2024-03-25T04:09:27;7.20;99.90
3542;DHT22;1785;47.388;8.538;2024-03-25T04:11:55;7.10;99.90
3542;DHT22;1785;47.388;8.538;2024-03-25T04:14:20;7.30;99.90
3542;DHT22;1785;47.388;8.538;2024-03-25T04:16:47;7.40;99.90
3542;DHT22;1785;47.388;8.538;2024-03-25T04:21:42;7.70;99.90
3542;DHT22;1785;47.388;8.538;2024-03-25T04:24:08;7.80;99.90
3542;DHT22;1785;47.388;8.538;2024-03-25T04:26:35;7.80;99.90
3542;DHT22;1785;47.388;8.538;2024-03-25T04:29:01;8.00;99.90
3542;DHT22;1785;47.388;8.538;2024-03-25T04:31:27;7.80;99.90
3542;DHT22;1785;47.388;8.538;2024-03-25T04:33:54;7.70;99.90
3542;DHT22;1785;47.388;8.538;2024-03-25T04:36:19;7.70;99.90
3542;DHT22;1785;47.388;8.538;2024-03-25T04:38:45;7.70;99.90
3542;DHT22;1785;47.388;8.538;2024-03-25T04:41:12;7.70;99.90
3542;DHT22;1785;47.388;8.538;2024-03-25T04:43:38;7.70;99.90
3542;DHT22;1785;47.388;8.538;2024-03-25T04:46:04;7.60;99.90
3542;DHT22;1785;47.388;8.538;2024-03-25T04:48:30;7.70;99.90
3542;DHT22;1785;47.388;8.538;2024-03-25T04:50:56;7.70;99.90
3542;DHT22;1785;47.388;8.538;2024-03-25T04:53:22;7.50;99.90
3542;DHT22;1785;47.388;8.538;2024-03-25T04:55:48;7.50;99.90
3542;DHT22;1785;47.388;8.538;2024-03-25T04:58:14;7.50;99.90
3542;DHT22;1785;47.388;8.538;2024-03-25T05:00:40;7.40;99.90
3542;DHT22;1785;47.388;8.538;2024-03-25T05:03:06;7.40;99.90
3542;DHT22;1785;47.388;8.538;2024-03-25T05:05:32;7.40;99.90
3542;DHT22;1785;47.388;8.538;2024-03-25T05:07:58;7.40;99.90
3542;DHT22;1785;47.388;8.538;2024-03-25T05:10:24;7.40;99.90
3542;DHT22;1785;47.388;8.538;2024-03-25T05:12:50;7.60;99.90
3542;DHT22;1785;47.388;8.538;2024-03-25T05:15:16;7.50;99.90
3542;DHT22;1785;47.388;8.538;2024-03-25T05:17:43;7.60;99.90
3542;DHT22;1785;47.388;8.538;2024-03-25T05:20:10;7.40;99.90
3542;DHT22;1785;47.388;8.538;2024-03-25T05:22:36;7.50;99.90
3542;DHT22;1785;47.388;8.538;2024-03-25T05:25:02;7.50;99.90
3542;DHT22;1785;47.388;8.538;2024-03-25T05:27:28;7.40;99.90
3542;DHT22;1785;47.388;8.538;2024-03-25T05:29:54;7.70;99.90
3542;DHT22;1785;47.388;8.538;2024-03-25T05:32:20;9.30;99.90
3542;DHT22;1785;47.388;8.538;2024-03-25T05:34:48;10.70;99.90
3542;DHT22;1785;47.388;8.538;2024-03-25T05:37:14;11.70;99.90
3542;DHT22;1785;47.388;8.538;2024-03-25T05:39:40;11.70;99.90
3542;DHT22;1785;47.388;8.538;2024-03-25T05:42:06;11.10;99.90
3542;DHT22;1785;47.388;8.538;2024-03-25T05:44:32;10.40;99.90
3542;DHT22;1785;47.388;8.538;2024-03-25T05:46:58;9.70;99.90
3542;DHT22;1785;47.388;8.538;2024-03-25T05:49:24;9.20;99.90
3542;DHT22;1785;47.388;8.538;2024-03-25T05:51:50;8.90;99.90
3542;DHT22;1785;47.388;8.538;2024-03-25T05:54:16;8.50;99.90
3542;DHT22;1785;47.388;8.538;2024-03-25T05:56:42;8.30;99.90
3542;DHT22;1785;47.388;8.538;2024-03-25T05:59:08;8.20;99.90
3542;DHT22;1785;47.388;8.538;2024-03-25T06:01:34;7.90;99.90
3542;DHT22;1785;47.388;8.538;2024-03-25T06:04:03;7.90;99.90
3542;DHT22;1785;47.388;8.538;2024-03-25T06:06:29;8.00;99.90
3542;DHT22;1785;47.388;8.538;2024-03-25T06:08:56;7.90;99.90
3542;DHT22;1785;47.388;8.538;2024-03-25T06:11:21;7.80;99.90
3542;DHT22;1785;47.388;8.538;2024-03-25T06:13:47;7.70;99.90
3542;DHT22;1785;47.388;8.538;2024-03-25T06:16:14;7.70;99.90
3542;DHT22;1785;47.388;8.538;2024-03-25T06:18:41;7.60;99.90
3542;DHT22;1785;47.388;8.538;2024-03-25T06:21:07;7.50;99.90
3542;DHT22;1785;47.388;8.538;2024-03-25T06:23:33;7.40;99.90
3542;DHT22;1785;47.388;8.538;2024-03-25T06:25:59;7.40;99.90
3542;DHT22;1785;47.388;8.538;2024-03-25T06:28:25;7.30;99.90
3542;DHT22;1785;47.388;8.538;2024-03-25T06:30:51;7.30;99.90
3542;DHT22;1785;47.388;8.538;2024-03-25T06:33:36;7.20;99.90
3542;DHT22;1785;47.388;8.538;2024-03-25T06:36:21;7.30;99.90
3542;DHT22;1785;47.388;8.538;2024-03-25T06:38:48;7.40;99.90
3542;DHT22;1785;47.388;8.538;2024-03-25T06:41:15;7.30;99.90
3542;DHT22;1785;47.388;8.538;2024-03-25T06:43:40;7.40;99.90
3542;DHT22;1785;47.388;8.538;2024-03-25T06:46:07;7.40;99.90
3542;DHT22;1785;47.388;8.538;2024-03-25T06:48:33;7.40;99.90
3542;DHT22;1785;47.388;8.538;2024-03-25T06:51:00;7.20;99.90
3542;DHT22;1785;47.388;8.538;2024-03-25T06:53:28;7.10;99.90
3542;DHT22;1785;47.388;8.538;2024-03-25T06:55:55;7.10;99.90
3542;DHT22;1785;47.388;8.538;2024-03-25T06:58:22;7.10;99.90
3542;DHT22;1785;47.388;8.538;2024-03-25T07:00:49;7.20;99.90
3542;DHT22;1785;47.388;8.538;2024-03-25T07:03:15;7.30;99.90
3542;DHT22;1785;47.388;8.538;2024-03-25T07:05:43;7.40;99.90
3542;DHT22;1785;47.388;8.538;2024-03-25T07:08:09;7.50;99.90
3542;DHT22;1785;47.388;8.538;2024-03-25T07:10:35;7.70;99.90
3542;DHT22;1785;47.388;8.538;2024-03-25T07:13:01;7.80;99.90
3542;DHT22;1785;47.388;8.538;2024-03-25T07:15:28;7.90;99.90
3542;DHT22;1785;47.388;8.538;2024-03-25T07:17:55;7.80;99.90
3542;DHT22;1785;47.388;8.538;2024-03-25T07:20:20;7.50;99.90
3542;DHT22;1785;47.388;8.538;2024-03-25T07:22:48;7.40;99.90
3542;DHT22;1785;47.388;8.538;2024-03-25T07:25:14;7.40;99.90
3542;DHT22;1785;47.388;8.538;2024-03-25T07:27:40;7.40;99.90
3542;DHT22;1785;47.388;8.538;2024-03-25T07:30:07;7.20;99.90
3542;DHT22;1785;47.388;8.538;2024-03-25T07:32:33;7.40;99.90
3542;DHT22;1785;47.388;8.538;2024-03-25T07:35:00;7.70;99.90
3542;DHT22;1785;47.388;8.538;2024-03-25T07:37:26;7.50;99.90
3542;DHT22;1785;47.388;8.538;2024-03-25T07:39:52;7.40;99.90
3542;DHT22;1785;47.388;8.538;2024-03-25T07:42:19;7.40;99.90
3542;DHT22;1785;47.388;8.538;2024-03-25T07:44:45;7.70;99.90
3542;DHT22;1785;47.388;8.538;2024-03-25T07:47:11;7.90;99.90
3542;DHT22;1785;47.388;8.538;2024-03-25T07:49:38;7.50;99.90
3542;DHT22;1785;47.388;8.538;2024-03-25T07:52:05;7.20;99.90
3542;DHT22;1785;47.388;8.538;2024-03-25T07:54:31;7.10;99.90
3542;DHT22;1785;47.388;8.538;2024-03-25T07:56:57;6.90;99.90
3542;DHT22;1785;47.388;8.538;2024-03-25T07:59:23;7.00;99.90
3542;DHT22;1785;47.388;8.538;2024-03-25T08:01:49;7.10;99.90
3542;DHT22;1785;47.388;8.538;2024-03-25T08:04:15;7.20;99.90
3542;DHT22;1785;47.388;8.538;2024-03-25T08:06:42;7.30;99.90
3542;DHT22;1785;47.388;8.538;2024-03-25T08:09:08;7.40;99.90
3542;DHT22;1785;47.388;8.538;2024-03-25T08:11:35;7.10;99.90
3542;DHT22;1785;47.388;8.538;2024-03-25T08:14:01;7.10;99.90
3542;DHT22;1785;47.388;8.538;2024-03-25T08:16:27;6.90;99.90
3542;DHT22;1785;47.388;8.538;2024-03-25T08:18:52;6.80;99.90
3542;DHT22;1785;47.388;8.538;2024-03-25T08:21:19;6.90;99.90
3542;DHT22;1785;47.388;8.538;2024-03-25T08:23:45;7.20;99.90
3542;DHT22;1785;47.388;8.538;2024-03-25T08:26:11;7.40;99.90
3542;DHT22;1785;47.388;8.538;2024-03-25T08:28:37;7.80;99.90
3542;DHT22;1785;47.388;8.538;2024-03-25T08:31:03;8.10;99.90
3542;DHT22;1785;47.388;8.538;2024-03-25T08:33:29;8.30;99.90
3542;DHT22;1785;47.388;8.538;2024-03-25T08:35:56;8.50;99.90
3542;DHT22;1785;47.388;8.538;2024-03-25T08:38:22;8.60;99.90
3542;DHT22;1785;47.388;8.538;2024-03-25T08:40:48;8.80;99.90
3542;DHT22;1785;47.388;8.538;2024-03-25T08:43:14;8.70;99.90
3542;DHT22;1785;47.388;8.538;2024-03-25T08:45:40;8.20;99.90
3542;DHT22;1785;47.388;8.538;2024-03-25T08:48:06;8.00;99.90
3542;DHT22;1785;47.388;8.538;2024-03-25T08:50:32;8.10;99.90
3542;DHT22;1785;47.388;8.538;2024-03-25T08:52:58;8.40;99.90
3542;DHT22;1785;47.388;8.538;2024-03-25T08:55:24;8.60;99.90
3542;DHT22;1785;47.388;8.538;2024-03-25T08:57:51;8.90;99.90
3542;DHT22;1785;47.388;8.538;2024-03-25T09:00:17;9.20;99.90
3542;DHT22;1785;47.388;8.538;2024-03-25T09:02:43;9.40;99.90
3542;DHT22;1785;47.388;8.538;2024-03-25T09:05:10;9.60;99.90
3542;DHT22;1785;47.388;8.538;2024-03-25T09:07:36;9.60;99.90
3542;DHT22;1785;47.388;8.538;2024-03-25T09:10:02;9.70;99.90
3542;DHT22;1785;47.388;8.538;2024-03-25T09:12:46;9.80;99.90
3542;DHT22;1785;47.388;8.538;2024-03-25T09:15:13;9.60;99.90
3542;DHT22;1785;47.388;8.538;2024-03-25T09:17:40;9.70;99.90
3542;DHT22;1785;47.388;8.538;2024-03-25T09:20:07;9.70;99.90
3542;DHT22;1785;47.388;8.538;2024-03-25T09:22:42;9.70;99.90
3542;DHT22;1785;47.388;8.538;2024-03-25T09:25:08;9.30;99.90
3542;DHT22;1785;47.388;8.538;2024-03-25T09:27:34;9.30;99.90
3542;DHT22;1785;47.388;8.538;2024-03-25T09:30:00;9.30;99.90
3542;DHT22;1785;47.388;8.538;2024-03-25T09:32:26;9.60;99.90
3542;DHT22;1785;47.388;8.538;2024-03-25T09:34:52;9.80;99.90
3542;DHT22;1785;47.388;8.538;2024-03-25T09:37:18;9.90;99.90
3542;DHT22;1785;47.388;8.538;2024-03-25T09:39:44;9.80;99.90
3542;DHT22;1785;47.388;8.538;2024-03-25T09:42:14;9.80;99.90
3542;DHT22;1785;47.388;8.538;2024-03-25T09:44:41;9.90;99.90
3542;DHT22;1785;47.388;8.538;2024-03-25T09:47:07;9.70;99.90
3542;DHT22;1785;47.388;8.538;2024-03-25T09:49:37;9.90;99.90
3542;DHT22;1785;47.388;8.538;2024-03-25T09:52:06;9.90;99.90
3542;DHT22;1785;47.388;8.538;2024-03-25T09:54:32;9.80;99.90
3542;DHT22;1785;47.388;8.538;2024-03-25T09:56:59;9.80;99.90
3542;DHT22;1785;47.388;8.538;2024-03-25T09:59:26;9.70;99.90
3542;DHT22;1785;47.388;8.538;2024-03-25T10:01:53;10.50;99.90
3542;DHT22;1785;47.388;8.538;2024-03-25T10:04:20;11.30;99.90
3542;DHT22;1785;47.388;8.538;2024-03-25T10:06:46;11.70;99.90
3542;DHT22;1785;47.388;8.538;2024-03-25T10:09:13;11.80;99.90
3542;DHT22;1785;47.388;8.538;2024-03-25T10:11:47;11.50;99.90
3542;DHT22;1785;47.388;8.538;2024-03-25T10:14:14;11.20;99.90
3542;DHT22;1785;47.388;8.538;2024-03-25T10:16:40;11.10;99.90
3542;DHT22;1785;47.388;8.538;2024-03-25T10:19:06;11.00;99.90
3542;DHT22;1785;47.388;8.538;2024-03-25T10:21:33;10.80;99.90
3542;DHT22;1785;47.388;8.538;2024-03-25T10:23:59;10.60;99.90
3542;DHT22;1785;47.388;8.538;2024-03-25T10:26:26;10.60;99.90
3542;DHT22;1785;47.388;8.538;2024-03-25T10:29:02;10.90;99.90
3542;DHT22;1785;47.388;8.538;2024-03-25T10:31:30;10.70;99.90
3542;DHT22;1785;47.388;8.538;2024-03-25T10:33:56;10.50;99.90
3542;DHT22;1785;47.388;8.538;2024-03-25T10:36:22;10.40;99.90
3542;DHT22;1785;47.388;8.538;2024-03-25T10:38:54;10.50;99.90
3542;DHT22;1785;47.388;8.538;2024-03-25T10:41:21;10.60;99.90
3542;DHT22;1785;47.388;8.538;2024-03-25T10:43:49;10.50;99.90
3542;DHT22;1785;47.388;8.538;2024-03-25T10:46:17;10.70;99.90
3542;DHT22;1785;47.388;8.538;2024-03-25T10:48:48;10.90;99.90
3542;DHT22;1785;47.388;8.538;2024-03-25T10:51:20;10.80;99.90
3542;DHT22;1785;47.388;8.538;2024-03-25T10:53:48;10.70;99.90
3542;DHT22;1785;47.388;8.538;2024-03-25T10:56:17;10.70;99.90
3542;DHT22;1785;47.388;8.538;2024-03-25T10:58:47;11.10;99.90
3542;DHT22;1785;47.388;8.538;2024-03-25T11:01:15;11.30;99.90
3542;DHT22;1785;47.388;8.538;2024-03-25T11:03:42;11.50;99.90
3542;DHT22;1785;47.388;8.538;2024-03-25T11:06:08;11.50;99.90
3542;DHT22;1785;47.388;8.538;2024-03-25T11:08:34;11.50;99.90
3542;DHT22;1785;47.388;8.538;2024-03-25T11:11:00;11.30;99.90
3542;DHT22;1785;47.388;8.538;2024-03-25T11:13:27;11.70;99.90
3542;DHT22;1785;47.388;8.538;2024-03-25T11:15:54;11.90;99.90
3542;DHT22;1785;47.388;8.538;2024-03-25T11:18:23;11.80;99.90
3542;DHT22;1785;47.388;8.538;2024-03-25T11:21:00;11.80;99.90
3542;DHT22;1785;47.388;8.538;2024-03-25T11:23:26;11.70;99.90
3542;DHT22;1785;47.388;8.538;2024-03-25T11:25:55;11.70;99.90
3542;DHT22;1785;47.388;8.538;2024-03-25T11:28:29;11.60;99.90
3542;DHT22;1785;47.388;8.538;2024-03-25T11:30:56;11.70;99.90
3542;DHT22;1785;47.388;8.538;2024-03-25T11:33:22;12.00;99.90
3542;DHT22;1785;47.388;8.538;2024-03-25T11:35:50;12.10;99.90
3542;DHT22;1785;47.388;8.538;2024-03-25T11:38:16;12.20;99.90
3542;DHT22;1785;47.388;8.538;2024-03-25T11:40:43;11.80;99.90
3542;DHT22;1785;47.388;8.538;2024-03-25T11:43:17;12.10;99.90
3542;DHT22;1785;47.388;8.538;2024-03-25T11:45:46;12.10;99.90
3542;DHT22;1785;47.388;8.538;2024-03-25T11:48:14;12.00;99.90
3542;DHT22;1785;47.388;8.538;2024-03-25T11:50:40;11.80;99.90
3542;DHT22;1785;47.388;8.538;2024-03-25T11:53:07;11.50;99.90
3542;DHT22;1785;47.388;8.538;2024-03-25T11:55:33;11.80;99.90
3542;DHT22;1785;47.388;8.538;2024-03-25T11:57:59;11.90;99.90
3542;DHT22;1785;47.388;8.538;2024-03-25T12:00:25;12.10;99.90
3542;DHT22;1785;47.388;8.538;2024-03-25T12:02:51;12.30;99.90
3542;DHT22;1785;47.388;8.538;2024-03-25T12:05:19;12.60;99.90
3542;DHT22;1785;47.388;8.538;2024-03-25T12:07:45;12.90;99.90
3542;DHT22;1785;47.388;8.538;2024-03-25T12:10:11;12.70;99.90
3542;DHT22;1785;47.388;8.538;2024-03-25T12:12:56;12.80;99.90
3542;DHT22;1785;47.388;8.538;2024-03-25T12:15:22;13.00;99.90
3542;DHT22;1785;47.388;8.538;2024-03-25T12:17:48;13.30;99.90
3542;DHT22;1785;47.388;8.538;2024-03-25T12:20:16;13.50;99.90
3542;DHT22;1785;47.388;8.538;2024-03-25T12:22:44;13.20;99.90
3542;DHT22;1785;47.388;8.538;2024-03-25T12:25:10;13.30;99.90
3542;DHT22;1785;47.388;8.538;2024-03-25T12:27:38;13.40;99.90
3542;DHT22;1785;47.388;8.538;2024-03-25T12:30:07;13.40;99.90
3542;DHT22;1785;47.388;8.538;2024-03-25T12:32:37;13.10;99.90
3542;DHT22;1785;47.388;8.538;2024-03-25T12:35:06;13.00;99.90
3542;DHT22;1785;47.388;8.538;2024-03-25T12:37:32;13.00;99.90
3542;DHT22;1785;47.388;8.538;2024-03-25T12:39:59;13.40;99.90
3542;DHT22;1785;47.388;8.538;2024-03-25T12:42:25;13.30;99.90
3542;DHT22;1785;47.388;8.538;2024-03-25T12:44:52;13.40;99.90
3542;DHT22;1785;47.388;8.538;2024-03-25T12:47:18;13.60;99.90
3542;DHT22;1785;47.388;8.538;2024-03-25T12:49:44;13.30;99.90
3542;DHT22;1785;47.388;8.538;2024-03-25T12:52:10;13.50;99.90
3542;DHT22;1785;47.388;8.538;2024-03-25T12:54:36;13.80;99.90
3542;DHT22;1785;47.388;8.538;2024-03-25T12:57:03;13.70;99.90
3542;DHT22;1785;47.388;8.538;2024-03-25T12:59:29;13.90;99.90
3542;DHT22;1785;47.388;8.538;2024-03-25T13:01:55;13.70;99.90
3542;DHT22;1785;47.388;8.538;2024-03-25T13:04:21;13.90;99.90
3542;DHT22;1785;47.388;8.538;2024-03-25T13:06:48;14.20;99.90
3542;DHT22;1785;47.388;8.538;2024-03-25T13:09:14;14.40;99.90
3542;DHT22;1785;47.388;8.538;2024-03-25T13:11:40;14.20;99.90
3542;DHT22;1785;47.388;8.538;2024-03-25T13:14:11;14.10;99.90
3542;DHT22;1785;47.388;8.538;2024-03-25T13:16:37;14.20;99.90
3542;DHT22;1785;47.388;8.538;2024-03-25T13:19:03;14.50;99.90
3542;DHT22;1785;47.388;8.538;2024-03-25T13:21:29;14.70;99.90
3542;DHT22;1785;47.388;8.538;2024-03-25T13:23:56;15.00;99.90
3542;DHT22;1785;47.388;8.538;2024-03-25T13:26:21;15.10;99.90
3542;DHT22;1785;47.388;8.538;2024-03-25T13:28:48;15.10;99.90
3542;DHT22;1785;47.388;8.538;2024-03-25T13:31:14;15.20;99.90
3542;DHT22;1785;47.388;8.538;2024-03-25T13:33:41;14.70;98.90
3542;DHT22;1785;47.388;8.538;2024-03-25T13:36:07;14.60;99.70
3542;DHT22;1785;47.388;8.538;2024-03-25T13:38:33;14.70;99.20
3542;DHT22;1785;47.388;8.538;2024-03-25T13:40:59;14.90;99.40
3542;DHT22;1785;47.388;8.538;2024-03-25T13:43:25;15.20;99.90
3542;DHT22;1785;47.388;8.538;2024-03-25T13:45:51;15.40;99.80
3542;DHT22;1785;47.388;8.538;2024-03-25T13:48:18;15.60;98.90
3542;DHT22;1785;47.388;8.538;2024-03-25T13:50:44;15.40;98.10
3542;DHT22;1785;47.388;8.538;2024-03-25T13:53:10;15.20;98.70
3542;DHT22;1785;47.388;8.538;2024-03-25T13:55:36;15.20;98.00
3542;DHT22;1785;47.388;8.538;2024-03-25T13:58:03;15.10;98.10
3542;DHT22;1785;47.388;8.538;2024-03-25T14:00:30;14.70;98.30
3542;DHT22;1785;47.388;8.538;2024-03-25T14:02:57;14.70;98.90
3542;DHT22;1785;47.388;8.538;2024-03-25T14:05:24;15.00;99.50
3542;DHT22;1785;47.388;8.538;2024-03-25T14:07:50;15.30;99.00
3542;DHT22;1785;47.388;8.538;2024-03-25T14:10:16;15.50;99.40
3542;DHT22;1785;47.388;8.538;2024-03-25T14:12:42;15.70;99.50
3542;DHT22;1785;47.388;8.538;2024-03-25T14:15:09;15.70;98.90
3542;DHT22;1785;47.388;8.538;2024-03-25T14:17:35;15.70;98.80
3542;DHT22;1785;47.388;8.538;2024-03-25T14:20:01;15.80;98.60
3542;DHT22;1785;47.388;8.538;2024-03-25T14:22:28;15.80;98.90
3542;DHT22;1785;47.388;8.538;2024-03-25T14:24:54;16.10;98.70
3542;DHT22;1785;47.388;8.538;2024-03-25T14:27:23;15.80;97.20
3542;DHT22;1785;47.388;8.538;2024-03-25T14:29:49;15.80;98.30
3542;DHT22;1785;47.388;8.538;2024-03-25T14:32:15;16.10;98.00
3542;DHT22;1785;47.388;8.538;2024-03-25T14:34:44;16.00;97.20
3542;DHT22;1785;47.388;8.538;2024-03-25T14:37:10;16.00;97.60
3542;DHT22;1785;47.388;8.538;2024-03-25T14:39:37;16.30;97.70
3542;DHT22;1785;47.388;8.538;2024-03-25T14:42:03;16.40;96.20
3542;DHT22;1785;47.388;8.538;2024-03-25T14:44:30;16.50;96.80
3542;DHT22;1785;47.388;8.538;2024-03-25T14:46:56;16.60;96.30
3542;DHT22;1785;47.388;8.538;2024-03-25T14:49:23;16.60;96.30
3542;DHT22;1785;47.388;8.538;2024-03-25T14:51:49;16.70;96.50
3542;DHT22;1785;47.388;8.538;2024-03-25T14:54:17;17.00;96.30
3542;DHT22;1785;47.388;8.538;2024-03-25T14:56:44;17.10;94.90
3542;DHT22;1785;47.388;8.538;2024-03-25T14:59:10;16.90;95.20
3542;DHT22;1785;47.388;8.538;2024-03-25T15:01:36;17.00;94.90
3542;DHT22;1785;47.388;8.538;2024-03-25T15:04:03;17.10;95.30
3542;DHT22;1785;47.388;8.538;2024-03-25T15:06:29;17.30;95.00
3542;DHT22;1785;47.388;8.538;2024-03-25T15:08:56;17.10;95.30
3542;DHT22;1785;47.388;8.538;2024-03-25T15:11:22;17.80;95.50
3542;DHT22;1785;47.388;8.538;2024-03-25T15:13:50;18.00;95.10
3542;DHT22;1785;47.388;8.538;2024-03-25T15:16:16;18.10;93.80
3542;DHT22;1785;47.388;8.538;2024-03-25T15:18:43;17.40;93.70
3542;DHT22;1785;47.388;8.538;2024-03-25T15:21:09;17.60;94.90
3542;DHT22;1785;47.388;8.538;2024-03-25T15:23:35;17.70;93.80
3542;DHT22;1785;47.388;8.538;2024-03-25T15:26:01;17.10;93.10
3542;DHT22;1785;47.388;8.538;2024-03-25T15:28:27;16.50;93.60
3542;DHT22;1785;47.388;8.538;2024-03-25T15:30:55;16.90;94.90
3542;DHT22;1785;47.388;8.538;2024-03-25T15:33:22;17.20;94.10
3542;DHT22;1785;47.388;8.538;2024-03-25T15:35:48;17.20;94.30
3542;DHT22;1785;47.388;8.538;2024-03-25T15:38:14;17.70;94.50
3542;DHT22;1785;47.388;8.538;2024-03-25T15:40:40;18.20;93.20
3542;DHT22;1785;47.388;8.538;2024-03-25T15:43:06;17.80;92.70
3542;DHT22;1785;47.388;8.538;2024-03-25T15:45:32;17.60;92.20
3542;DHT22;1785;47.388;8.538;2024-03-25T15:47:59;17.20;92.00
3542;DHT22;1785;47.388;8.538;2024-03-25T15:50:25;16.90;93.10
3542;DHT22;1785;47.388;8.538;2024-03-25T15:52:51;17.20;93.40
3542;DHT22;1785;47.388;8.538;2024-03-25T15:55:18;16.90;92.90
3542;DHT22;1785;47.388;8.538;2024-03-25T15:57:44;16.90;92.60
3542;DHT22;1785;47.388;8.538;2024-03-25T16:00:11;16.70;93.00
3542;DHT22;1785;47.388;8.538;2024-03-25T16:02:38;16.60;93.00
3542;DHT22;1785;47.388;8.538;2024-03-25T16:05:05;16.60;93.50
3542;DHT22;1785;47.388;8.538;2024-03-25T16:07:32;16.90;93.80
3542;DHT22;1785;47.388;8.538;2024-03-25T16:09:58;17.10;93.40
3542;DHT22;1785;47.388;8.538;2024-03-25T16:12:25;17.20;93.10